sensor_id;sensor_type;location;lat;lon;timestamp;temperature;humidity
13928;DHT22;7036;50.834;4.718;2022-08-11T00:01:48;26.10;52.40
13928;DHT22;7036;50.834;4.718;2022-08-11T00:04:14;26.10;52.40
13928;DHT22;7036;50.834;4.718;2022-08-11T00:06:41;26.10;52.40
13928;DHT22;7036;50.834;4.718;2022-08-11T00:09:09;26.10;52.40
13928;DHT22;7036;50.834;4.718;2022-08-11T00:11:38;26.10;52.40
13928;DHT22;7036;50.834;4.718;2022-08-11T00:14:02;26.10;52.40
13928;DHT22;7036;50.834;4.718;2022-08-11T00:16:28;26.10;52.40
13928;DHT22;7036;50.834;4.718;2022-08-11T00:18:56;26.10;52.40
13928;DHT22;7036;50.834;4.718;2022-08-11T00:21:23;26.10;52.40
13928;DHT22;7036;50.834;4.718;2022-08-11T00:23:53;26.00;52.30
13928;DHT22;7036;50.834;4.718;2022-08-11T00:26:20;26.10;52.50
13928;DHT22;7036;50.834;4.718;2022-08-11T00:28:46;26.00;52.40
13928;DHT22;7036;50.834;4.718;2022-08-11T00:31:29;26.00;52.40
13928;DHT22;7036;50.834;4.718;2022-08-11T00:33:55;26.00;52.30
13928;DHT22;7036;50.834;4.718;2022-08-11T00:36:25;26.00;52.30
13928;DHT22;7036;50.834;4.718;2022-08-11T00:38:50;26.00;52.30
13928;DHT22;7036;50.834;4.718;2022-08-11T00:47:09;26.00;52.30
13928;DHT22;7036;50.834;4.718;2022-08-11T01:01:19;26.00;52.30
13928;DHT22;7036;50.834;4.718;2022-08-11T01:09:23;25.90;52.30
13928;DHT22;7036;50.834;4.718;2022-08-11T01:12:03;25.90;52.30
13928;DHT22;7036;50.834;4.718;2022-08-11T01:41:40;25.90;52.20
13928;DHT22;7036;50.834;4.718;2022-08-11T01:47:19;25.90;52.20
13928;DHT22;7036;50.834;4.718;2022-08-11T01:49:54;25.90;52.30
13928;DHT22;7036;50.834;4.718;2022-08-11T01:52:32;25.90;52.30
13928;DHT22;7036;50.834;4.718;2022-08-11T01:57:49;25.90;52.20
13928;DHT22;7036;50.834;4.718;2022-08-11T02:00:15;25.90;52.30
13928;DHT22;7036;50.834;4.718;2022-08-11T02:05:35;25.90;52.20
13928;DHT22;7036;50.834;4.718;2022-08-11T02:10:36;25.80;52.50
13928;DHT22;7036;50.834;4.718;2022-08-11T02:19:05;25.80;52.20
13928;DHT22;7036;50.834;4.718;2022-08-11T02:21:48;25.80;52.10
13928;DHT22;7036;50.834;4.718;2022-08-11T02:24:33;25.80;52.10
13928;DHT22;7036;50.834;4.718;2022-08-11T02:27:01;25.80;52.10
13928;DHT22;7036;50.834;4.718;2022-08-11T02:32:22;25.80;52.10
13928;DHT22;7036;50.834;4.718;2022-08-11T02:35:13;25.80;52.10
13928;DHT22;7036;50.834;4.718;2022-08-11T02:40:41;25.80;52.20
13928;DHT22;7036;50.834;4.718;2022-08-11T02:43:07;25.80;52.10
13928;DHT22;7036;50.834;4.718;2022-08-11T02:45:48;25.80;52.10
13928;DHT22;7036;50.834;4.718;2022-08-11T02:48:35;25.80;52.10
13928;DHT22;7036;50.834;4.718;2022-08-11T02:51:28;25.80;52.10
13928;DHT22;7036;50.834;4.718;2022-08-11T02:54:13;25.80;52.10
13928;DHT22;7036;50.834;4.718;2022-08-11T02:56:53;25.80;52.10
13928;DHT22;7036;50.834;4.718;2022-08-11T03:10:40;25.70;52.00
13928;DHT22;7036;50.834;4.718;2022-08-11T03:13:24;25.70;52.10
13928;DHT22;7036;50.834;4.718;2022-08-11T03:19:28;25.70;52.10
13928;DHT22;7036;50.834;4.718;2022-08-11T03:22:16;25.70;52.10
13928;DHT22;7036;50.834;4.718;2022-08-11T03:25:00;25.70;52.10
13928;DHT22;7036;50.834;4.718;2022-08-11T03:28:01;25.70;52.00
13928;DHT22;7036;50.834;4.718;2022-08-11T03:30:45;25.70;52.10
13928;DHT22;7036;50.834;4.718;2022-08-11T03:33:29;25.70;52.10
13928;DHT22;7036;50.834;4.718;2022-08-11T03:36:39;25.70;52.00
13928;DHT22;7036;50.834;4.718;2022-08-11T03:39:06;25.70;52.10
13928;DHT22;7036;50.834;4.718;2022-08-11T03:41:35;25.70;52.00
13928;DHT22;7036;50.834;4.718;2022-08-11T03:44:22;25.70;52.10
13928;DHT22;7036;50.834;4.718;2022-08-11T03:52:22;25.60;51.90
13928;DHT22;7036;50.834;4.718;2022-08-11T03:58:05;25.60;51.90
13928;DHT22;7036;50.834;4.718;2022-08-11T04:00:28;25.70;52.00
13928;DHT22;7036;50.834;4.718;2022-08-11T04:06:08;25.60;52.10
13928;DHT22;7036;50.834;4.718;2022-08-11T04:25:12;25.70;52.00
13928;DHT22;7036;50.834;4.718;2022-08-11T04:27:52;25.70;52.10
13928;DHT22;7036;50.834;4.718;2022-08-11T04:30:31;25.70;51.90
13928;DHT22;7036;50.834;4.718;2022-08-11T04:39:04;25.70;52.00
13928;DHT22;7036;50.834;4.718;2022-08-11T04:56:25;25.60;52.00
13928;DHT22;7036;50.834;4.718;2022-08-11T04:59:22;25.60;51.90
13928;DHT22;7036;50.834;4.718;2022-08-11T05:13:44;25.60;51.90
13928;DHT22;7036;50.834;4.718;2022-08-11T05:16:49;25.60;51.80
13928;DHT22;7036;50.834;4.718;2022-08-11T05:19:33;25.60;51.90
13928;DHT22;7036;50.834;4.718;2022-08-11T05:22:19;25.60;51.90
13928;DHT22;7036;50.834;4.718;2022-08-11T05:25:10;25.60;51.80
13928;DHT22;7036;50.834;4.718;2022-08-11T05:31:21;25.60;51.60
13928;DHT22;7036;50.834;4.718;2022-08-11T05:33:47;25.60;51.60
13928;DHT22;7036;50.834;4.718;2022-08-11T05:36:43;25.60;51.70
13928;DHT22;7036;50.834;4.718;2022-08-11T05:39:10;25.60;51.70
13928;DHT22;7036;50.834;4.718;2022-08-11T05:41:54;25.60;51.60
13928;DHT22;7036;50.834;4.718;2022-08-11T05:44:37;25.60;51.60
13928;DHT22;7036;50.834;4.718;2022-08-11T05:47:24;25.60;51.60
13928;DHT22;7036;50.834;4.718;2022-08-11T05:50:12;25.60;51.50
13928;DHT22;7036;50.834;4.718;2022-08-11T05:52:57;25.60;51.30
13928;DHT22;7036;50.834;4.718;2022-08-11T05:55:42;25.60;51.00
13928;DHT22;7036;50.834;4.718;2022-08-11T05:58:34;25.60;51.40
13928;DHT22;7036;50.834;4.718;2022-08-11T06:01:00;25.60;51.10
13928;DHT22;7036;50.834;4.718;2022-08-11T06:03:28;25.60;51.00
13928;DHT22;7036;50.834;4.718;2022-08-11T06:05:55;25.60;51.50
13928;DHT22;7036;50.834;4.718;2022-08-11T06:08:31;25.60;51.60
13928;DHT22;7036;50.834;4.718;2022-08-11T06:10:58;25.70;51.80
13928;DHT22;7036;50.834;4.718;2022-08-11T06:13:21;25.70;51.90
13928;DHT22;7036;50.834;4.718;2022-08-11T06:15:48;25.70;51.80
13928;DHT22;7036;50.834;4.718;2022-08-11T06:18:15;25.70;51.90
13928;DHT22;7036;50.834;4.718;2022-08-11T06:20:53;25.80;52.50
13928;DHT22;7036;50.834;4.718;2022-08-11T06:23:29;25.80;52.30
13928;DHT22;7036;50.834;4.718;2022-08-11T06:25:52;25.80;52.10
13928;DHT22;7036;50.834;4.718;2022-08-11T06:28:19;25.80;52.00
13928;DHT22;7036;50.834;4.718;2022-08-11T06:30:45;25.80;52.00
13928;DHT22;7036;50.834;4.718;2022-08-11T06:33:15;25.80;52.00
13928;DHT22;7036;50.834;4.718;2022-08-11T06:44:01;25.90;52.40
13928;DHT22;7036;50.834;4.718;2022-08-11T06:46:27;26.00;52.20
13928;DHT22;7036;50.834;4.718;2022-08-11T06:48:52;25.90;52.00
13928;DHT22;7036;50.834;4.718;2022-08-11T06:51:19;26.00;52.00
13928;DHT22;7036;50.834;4.718;2022-08-11T06:53:59;25.90;52.00
13928;DHT22;7036;50.834;4.718;2022-08-11T06:56:27;25.90;51.80
13928;DHT22;7036;50.834;4.718;2022-08-11T06:59:10;25.90;51.60
13928;DHT22;7036;50.834;4.718;2022-08-11T07:04:49;25.90;51.20
13928;DHT22;7036;50.834;4.718;2022-08-11T07:13:47;26.00;50.90
13928;DHT22;7036;50.834;4.718;2022-08-11T07:16:32;26.00;50.90
13928;DHT22;7036;50.834;4.718;2022-08-11T07:19:03;26.00;50.80
13928;DHT22;7036;50.834;4.718;2022-08-11T07:21:35;26.00;50.80
13928;DHT22;7036;50.834;4.718;2022-08-11T07:24:24;26.10;51.00
13928;DHT22;7036;50.834;4.718;2022-08-11T07:27:07;26.10;50.90
13928;DHT22;7036;50.834;4.718;2022-08-11T07:29:51;26.10;50.90
13928;DHT22;7036;50.834;4.718;2022-08-11T07:32:23;26.10;50.80
13928;DHT22;7036;50.834;4.718;2022-08-11T07:34:49;26.10;51.00
13928;DHT22;7036;50.834;4.718;2022-08-11T07:37:15;26.10;50.90
13928;DHT22;7036;50.834;4.718;2022-08-11T07:39:44;26.10;50.70
13928;DHT22;7036;50.834;4.718;2022-08-11T07:42:12;26.10;51.50
13928;DHT22;7036;50.834;4.718;2022-08-11T07:44:39;26.10;50.80
13928;DHT22;7036;50.834;4.718;2022-08-11T07:47:04;26.20;51.60
13928;DHT22;7036;50.834;4.718;2022-08-11T07:49:50;26.20;51.10
13928;DHT22;7036;50.834;4.718;2022-08-11T07:52:35;26.20;50.60
13928;DHT22;7036;50.834;4.718;2022-08-11T07:57:29;26.20;51.30
13928;DHT22;7036;50.834;4.718;2022-08-11T08:00:14;26.20;50.90
13928;DHT22;7036;50.834;4.718;2022-08-11T08:02:59;26.20;50.90
13928;DHT22;7036;50.834;4.718;2022-08-11T08:05:45;26.10;50.30
13928;DHT22;7036;50.834;4.718;2022-08-11T08:08:30;26.10;50.20
13928;DHT22;7036;50.834;4.718;2022-08-11T08:11:15;26.00;49.30
13928;DHT22;7036;50.834;4.718;2022-08-11T08:14:00;26.10;49.80
13928;DHT22;7036;50.834;4.718;2022-08-11T08:16:45;26.10;49.70
13928;DHT22;7036;50.834;4.718;2022-08-11T08:19:31;26.10;49.70
13928;DHT22;7036;50.834;4.718;2022-08-11T08:21:57;26.10;49.70
13928;DHT22;7036;50.834;4.718;2022-08-11T08:24:24;26.10;49.80
13928;DHT22;7036;50.834;4.718;2022-08-11T08:26:51;26.20;49.90
13928;DHT22;7036;50.834;4.718;2022-08-11T08:29:25;26.10;49.70
13928;DHT22;7036;50.834;4.718;2022-08-11T08:32:09;26.10;49.60
13928;DHT22;7036;50.834;4.718;2022-08-11T08:34:36;26.10;49.60
13928;DHT22;7036;50.834;4.718;2022-08-11T08:37:03;26.00;49.70
13928;DHT22;7036;50.834;4.718;2022-08-11T08:39:29;26.10;49.00
13928;DHT22;7036;50.834;4.718;2022-08-11T08:41:56;26.10;49.40
13928;DHT22;7036;50.834;4.718;2022-08-11T08:44:23;26.20;49.30
13928;DHT22;7036;50.834;4.718;2022-08-11T08:46:57;26.20;49.30
13928;DHT22;7036;50.834;4.718;2022-08-11T08:49:28;26.20;49.90
13928;DHT22;7036;50.834;4.718;2022-08-11T08:51:53;26.30;50.30
13928;DHT22;7036;50.834;4.718;2022-08-11T08:54:21;26.20;49.70
13928;DHT22;7036;50.834;4.718;2022-08-11T08:56:47;26.30;49.80
13928;DHT22;7036;50.834;4.718;2022-08-11T08:59:14;26.30;50.00
13928;DHT22;7036;50.834;4.718;2022-08-11T09:01:52;26.30;50.20
13928;DHT22;7036;50.834;4.718;2022-08-11T09:04:16;26.30;50.40
13928;DHT22;7036;50.834;4.718;2022-08-11T09:06:43;26.30;50.50
13928;DHT22;7036;50.834;4.718;2022-08-11T09:09:10;26.30;50.50
13928;DHT22;7036;50.834;4.718;2022-08-11T09:11:42;26.30;50.50
13928;DHT22;7036;50.834;4.718;2022-08-11T09:14:22;26.30;50.50
13928;DHT22;7036;50.834;4.718;2022-08-11T09:16:48;26.30;50.20
13928;DHT22;7036;50.834;4.718;2022-08-11T09:19:19;26.30;50.00
13928;DHT22;7036;50.834;4.718;2022-08-11T09:21:42;26.30;49.60
13928;DHT22;7036;50.834;4.718;2022-08-11T09:24:10;26.40;49.50
13928;DHT22;7036;50.834;4.718;2022-08-11T09:26:55;26.40;49.30
13928;DHT22;7036;50.834;4.718;2022-08-11T09:29:31;26.40;50.20
13928;DHT22;7036;50.834;4.718;2022-08-11T09:31:58;26.40;49.90
13928;DHT22;7036;50.834;4.718;2022-08-11T09:34:25;26.40;49.50
13928;DHT22;7036;50.834;4.718;2022-08-11T09:36:52;26.40;49.80
13928;DHT22;7036;50.834;4.718;2022-08-11T09:39:37;26.40;49.70
13928;DHT22;7036;50.834;4.718;2022-08-11T09:42:22;26.40;50.10
13928;DHT22;7036;50.834;4.718;2022-08-11T09:44:49;26.40;50.50
13928;DHT22;7036;50.834;4.718;2022-08-11T09:47:25;26.40;50.90
13928;DHT22;7036;50.834;4.718;2022-08-11T09:49:56;26.50;50.90
13928;DHT22;7036;50.834;4.718;2022-08-11T09:52:18;26.50;50.40
13928;DHT22;7036;50.834;4.718;2022-08-11T09:54:46;26.50;50.40
13928;DHT22;7036;50.834;4.718;2022-08-11T09:57:12;26.50;49.90
13928;DHT22;7036;50.834;4.718;2022-08-11T09:59:57;26.50;50.70
13928;DHT22;7036;50.834;4.718;2022-08-11T10:02:25;26.50;50.40
13928;DHT22;7036;50.834;4.718;2022-08-11T10:04:51;26.50;50.40
13928;DHT22;7036;50.834;4.718;2022-08-11T10:07:18;26.50;50.30
13928;DHT22;7036;50.834;4.718;2022-08-11T10:09:46;26.50;50.30
13928;DHT22;7036;50.834;4.718;2022-08-11T10:12:19;26.50;50.40
13928;DHT22;7036;50.834;4.718;2022-08-11T10:14:47;26.50;50.90
13928;DHT22;7036;50.834;4.718;2022-08-11T10:17:33;26.50;50.80
13928;DHT22;7036;50.834;4.718;2022-08-11T10:19:58;26.50;50.40
13928;DHT22;7036;50.834;4.718;2022-08-11T10:22:25;26.50;50.30
13928;DHT22;7036;50.834;4.718;2022-08-11T10:25:10;26.50;50.40
13928;DHT22;7036;50.834;4.718;2022-08-11T10:27:55;26.50;49.90
13928;DHT22;7036;50.834;4.718;2022-08-11T10:30:25;26.50;49.70
13928;DHT22;7036;50.834;4.718;2022-08-11T10:33:12;26.50;49.90
13928;DHT22;7036;50.834;4.718;2022-08-11T10:35:58;26.50;50.10
13928;DHT22;7036;50.834;4.718;2022-08-11T10:38:24;26.50;50.20
13928;DHT22;7036;50.834;4.718;2022-08-11T10:40:51;26.50;50.60
13928;DHT22;7036;50.834;4.718;2022-08-11T10:43:18;26.50;50.50
13928;DHT22;7036;50.834;4.718;2022-08-11T10:45:45;26.60;49.90
13928;DHT22;7036;50.834;4.718;2022-08-11T10:48:34;26.60;49.60
13928;DHT22;7036;50.834;4.718;2022-08-11T10:50:57;26.60;49.70
13928;DHT22;7036;50.834;4.718;2022-08-11T10:53:42;26.60;49.70
13928;DHT22;7036;50.834;4.718;2022-08-11T10:56:26;26.60;48.50
13928;DHT22;7036;50.834;4.718;2022-08-11T10:59:10;26.60;48.80
13928;DHT22;7036;50.834;4.718;2022-08-11T11:01:37;26.60;49.20
13928;DHT22;7036;50.834;4.718;2022-08-11T11:04:05;26.60;49.40
13928;DHT22;7036;50.834;4.718;2022-08-11T11:06:45;26.60;49.50
13928;DHT22;7036;50.834;4.718;2022-08-11T11:09:28;26.60;49.70
13928;DHT22;7036;50.834;4.718;2022-08-11T11:11:55;26.60;50.20
13928;DHT22;7036;50.834;4.718;2022-08-11T11:14:39;26.60;50.30
13928;DHT22;7036;50.834;4.718;2022-08-11T11:17:28;26.60;50.50
13928;DHT22;7036;50.834;4.718;2022-08-11T11:20:09;26.60;50.50
13928;DHT22;7036;50.834;4.718;2022-08-11T11:22:36;26.60;50.30
13928;DHT22;7036;50.834;4.718;2022-08-11T11:25:23;26.60;50.20
13928;DHT22;7036;50.834;4.718;2022-08-11T11:30:11;26.70;51.00
13928;DHT22;7036;50.834;4.718;2022-08-11T11:35:36;26.70;50.70
13928;DHT22;7036;50.834;4.718;2022-08-11T11:38:01;26.70;50.20
13928;DHT22;7036;50.834;4.718;2022-08-11T11:40:28;26.70;50.10
13928;DHT22;7036;50.834;4.718;2022-08-11T11:42:55;26.70;55.40
13928;DHT22;7036;50.834;4.718;2022-08-11T11:45:22;26.70;53.00
13928;DHT22;7036;50.834;4.718;2022-08-11T11:47:51;26.70;50.40
13928;DHT22;7036;50.834;4.718;2022-08-11T11:50:27;26.70;49.50
13928;DHT22;7036;50.834;4.718;2022-08-11T11:52:52;26.70;49.40
13928;DHT22;7036;50.834;4.718;2022-08-11T11:55:23;26.70;49.50
13928;DHT22;7036;50.834;4.718;2022-08-11T11:57:51;26.70;55.60
13928;DHT22;7036;50.834;4.718;2022-08-11T12:00:35;26.70;49.30
13928;DHT22;7036;50.834;4.718;2022-08-11T12:03:20;26.70;50.20
13928;DHT22;7036;50.834;4.718;2022-08-11T12:05:47;26.70;48.50
13928;DHT22;7036;50.834;4.718;2022-08-11T12:08:14;26.70;49.10
13928;DHT22;7036;50.834;4.718;2022-08-11T12:11:03;26.70;49.00
13928;DHT22;7036;50.834;4.718;2022-08-11T12:13:48;26.70;48.80
13928;DHT22;7036;50.834;4.718;2022-08-11T12:16:16;26.70;48.90
13928;DHT22;7036;50.834;4.718;2022-08-11T12:18:42;26.70;48.80
13928;DHT22;7036;50.834;4.718;2022-08-11T12:21:09;26.70;48.80
13928;DHT22;7036;50.834;4.718;2022-08-11T12:23:36;26.70;48.50
13928;DHT22;7036;50.834;4.718;2022-08-11T12:26:21;26.70;48.20
13928;DHT22;7036;50.834;4.718;2022-08-11T12:29:08;26.70;47.90
13928;DHT22;7036;50.834;4.718;2022-08-11T12:31:33;26.70;47.70
13928;DHT22;7036;50.834;4.718;2022-08-11T12:34:10;26.70;47.40
13928;DHT22;7036;50.834;4.718;2022-08-11T12:36:53;26.70;47.50
13928;DHT22;7036;50.834;4.718;2022-08-11T12:39:21;26.70;47.40
13928;DHT22;7036;50.834;4.718;2022-08-11T12:41:47;26.70;47.50
13928;DHT22;7036;50.834;4.718;2022-08-11T12:44:32;26.70;47.60
13928;DHT22;7036;50.834;4.718;2022-08-11T12:47:18;26.70;47.70
13928;DHT22;7036;50.834;4.718;2022-08-11T12:49:46;26.70;47.60
13928;DHT22;7036;50.834;4.718;2022-08-11T12:52:31;26.70;47.50
13928;DHT22;7036;50.834;4.718;2022-08-11T12:54:57;26.70;47.00
13928;DHT22;7036;50.834;4.718;2022-08-11T12:57:30;26.70;47.10
13928;DHT22;7036;50.834;4.718;2022-08-11T13:00:15;26.70;47.20
13928;DHT22;7036;50.834;4.718;2022-08-11T13:03:00;26.80;47.60
13928;DHT22;7036;50.834;4.718;2022-08-11T13:05:45;26.70;47.50
13928;DHT22;7036;50.834;4.718;2022-08-11T13:08:12;26.80;47.60
13928;DHT22;7036;50.834;4.718;2022-08-11T13:10:38;26.80;47.60
13928;DHT22;7036;50.834;4.718;2022-08-11T13:13:24;26.80;47.20
13928;DHT22;7036;50.834;4.718;2022-08-11T13:15:51;26.80;47.00
13928;DHT22;7036;50.834;4.718;2022-08-11T13:18:18;26.80;47.00
13928;DHT22;7036;50.834;4.718;2022-08-11T13:20:44;26.80;47.10
13928;DHT22;7036;50.834;4.718;2022-08-11T13:23:11;26.80;47.20
13928;DHT22;7036;50.834;4.718;2022-08-11T13:25:38;26.80;47.00
13928;DHT22;7036;50.834;4.718;2022-08-11T13:28:05;26.80;46.90
13928;DHT22;7036;50.834;4.718;2022-08-11T13:30:32;26.80;47.00
13928;DHT22;7036;50.834;4.718;2022-08-11T13:33:17;26.80;47.20
13928;DHT22;7036;50.834;4.718;2022-08-11T13:35:48;26.80;47.30
13928;DHT22;7036;50.834;4.718;2022-08-11T13:38:14;26.80;47.20
13928;DHT22;7036;50.834;4.718;2022-08-11T13:40:40;26.80;47.10
13928;DHT22;7036;50.834;4.718;2022-08-11T13:43:08;26.80;47.00
13928;DHT22;7036;50.834;4.718;2022-08-11T13:45:35;26.80;47.20
13928;DHT22;7036;50.834;4.718;2022-08-11T13:48:02;26.80;47.20
13928;DHT22;7036;50.834;4.718;2022-08-11T13:50:28;26.90;47.30
13928;DHT22;7036;50.834;4.718;2022-08-11T13:53:16;26.90;47.20
13928;DHT22;7036;50.834;4.718;2022-08-11T13:55:43;26.90;47.20
13928;DHT22;7036;50.834;4.718;2022-08-11T13:58:10;26.90;47.20
13928;DHT22;7036;50.834;4.718;2022-08-11T14:00:37;26.90;47.40
13928;DHT22;7036;50.834;4.718;2022-08-11T14:03:05;26.90;47.00
13928;DHT22;7036;50.834;4.718;2022-08-11T14:05:33;26.90;46.60
13928;DHT22;7036;50.834;4.718;2022-08-11T14:08:01;26.90;45.80
13928;DHT22;7036;50.834;4.718;2022-08-11T14:10:28;26.90;46.00
13928;DHT22;7036;50.834;4.718;2022-08-11T14:12:58;26.90;46.40
13928;DHT22;7036;50.834;4.718;2022-08-11T14:15:42;26.90;46.70
13928;DHT22;7036;50.834;4.718;2022-08-11T14:18:12;26.90;46.60
13928;DHT22;7036;50.834;4.718;2022-08-11T14:20:36;26.90;46.20
13928;DHT22;7036;50.834;4.718;2022-08-11T14:23:23;27.00;46.20
13928;DHT22;7036;50.834;4.718;2022-08-11T14:25:49;27.00;46.20
13928;DHT22;7036;50.834;4.718;2022-08-11T14:28:34;27.00;45.60
13928;DHT22;7036;50.834;4.718;2022-08-11T14:31:02;27.00;45.90
13928;DHT22;7036;50.834;4.718;2022-08-11T14:33:29;27.00;45.90
13928;DHT22;7036;50.834;4.718;2022-08-11T14:35:55;27.00;46.00
13928;DHT22;7036;50.834;4.718;2022-08-11T14:38:22;27.00;45.90
13928;DHT22;7036;50.834;4.718;2022-08-11T14:40:49;27.10;46.10
13928;DHT22;7036;50.834;4.718;2022-08-11T14:43:34;27.00;45.90
13928;DHT22;7036;50.834;4.718;2022-08-11T14:46:19;27.10;46.00
13928;DHT22;7036;50.834;4.718;2022-08-11T14:49:04;27.10;46.10
13928;DHT22;7036;50.834;4.718;2022-08-11T14:51:31;27.10;46.20
13928;DHT22;7036;50.834;4.718;2022-08-11T14:53:58;27.10;46.20
13928;DHT22;7036;50.834;4.718;2022-08-11T14:56:25;27.10;46.20
13928;DHT22;7036;50.834;4.718;2022-08-11T14:59:01;27.20;46.10
13928;DHT22;7036;50.834;4.718;2022-08-11T15:01:28;27.20;45.90
13928;DHT22;7036;50.834;4.718;2022-08-11T15:04:12;27.20;45.60
13928;DHT22;7036;50.834;4.718;2022-08-11T15:06:39;27.20;45.40
13928;DHT22;7036;50.834;4.718;2022-08-11T15:09:06;27.20;45.20
13928;DHT22;7036;50.834;4.718;2022-08-11T15:11:33;27.20;45.00
13928;DHT22;7036;50.834;4.718;2022-08-11T15:14:09;27.30;44.70
13928;DHT22;7036;50.834;4.718;2022-08-11T15:16:40;27.30;44.90
13928;DHT22;7036;50.834;4.718;2022-08-11T15:19:21;27.30;44.60
13928;DHT22;7036;50.834;4.718;2022-08-11T15:21:48;27.30;44.80
13928;DHT22;7036;50.834;4.718;2022-08-11T15:24:33;27.30;44.80
13928;DHT22;7036;50.834;4.718;2022-08-11T15:27:00;27.30;44.60
13928;DHT22;7036;50.834;4.718;2022-08-11T15:29:46;27.40;44.70
13928;DHT22;7036;50.834;4.718;2022-08-11T15:32:32;27.30;44.60
13928;DHT22;7036;50.834;4.718;2022-08-11T15:35:17;27.40;44.50
13928;DHT22;7036;50.834;4.718;2022-08-11T15:38:02;27.40;44.40
13928;DHT22;7036;50.834;4.718;2022-08-11T15:40:30;27.40;44.10
13928;DHT22;7036;50.834;4.718;2022-08-11T15:43:21;27.40;43.80
13928;DHT22;7036;50.834;4.718;2022-08-11T15:46:07;27.40;43.70
13928;DHT22;7036;50.834;4.718;2022-08-11T15:51:09;27.40;43.20
13928;DHT22;7036;50.834;4.718;2022-08-11T15:53:49;27.40;43.20
13928;DHT22;7036;50.834;4.718;2022-08-11T15:56:13;27.40;42.60
13928;DHT22;7036;50.834;4.718;2022-08-11T15:58:42;27.40;42.40
13928;DHT22;7036;50.834;4.718;2022-08-11T16:01:26;27.50;42.30
13928;DHT22;7036;50.834;4.718;2022-08-11T16:04:18;27.40;42.10
13928;DHT22;7036;50.834;4.718;2022-08-11T16:09:12;27.40;43.00
13928;DHT22;7036;50.834;4.718;2022-08-11T16:11:39;27.40;42.20
13928;DHT22;7036;50.834;4.718;2022-08-11T16:14:05;27.40;42.30
13928;DHT22;7036;50.834;4.718;2022-08-11T16:16:50;27.40;42.40
13928;DHT22;7036;50.834;4.718;2022-08-11T16:19:18;27.40;42.30
13928;DHT22;7036;50.834;4.718;2022-08-11T16:21:44;27.40;42.20
13928;DHT22;7036;50.834;4.718;2022-08-11T16:24:12;27.40;42.20
13928;DHT22;7036;50.834;4.718;2022-08-11T16:26:40;27.40;42.20
13928;DHT22;7036;50.834;4.718;2022-08-11T16:29:05;27.40;42.40
13928;DHT22;7036;50.834;4.718;2022-08-11T16:31:32;27.40;42.30
13928;DHT22;7036;50.834;4.718;2022-08-11T16:33:59;27.40;42.00
13928;DHT22;7036;50.834;4.718;2022-08-11T16:36:26;27.40;42.30
13928;DHT22;7036;50.834;4.718;2022-08-11T16:39:13;27.30;42.20
13928;DHT22;7036;50.834;4.718;2022-08-11T16:41:39;27.30;42.30
13928;DHT22;7036;50.834;4.718;2022-08-11T16:44:24;27.30;42.70
13928;DHT22;7036;50.834;4.718;2022-08-11T16:47:15;27.30;42.70
13928;DHT22;7036;50.834;4.718;2022-08-11T16:49:45;27.30;42.80
13928;DHT22;7036;50.834;4.718;2022-08-11T16:52:11;27.30;42.60
13928;DHT22;7036;50.834;4.718;2022-08-11T16:54:38;27.30;43.10
13928;DHT22;7036;50.834;4.718;2022-08-11T16:57:06;27.30;43.00
13928;DHT22;7036;50.834;4.718;2022-08-11T16:59:52;27.30;42.70
13928;DHT22;7036;50.834;4.718;2022-08-11T17:02:20;27.30;42.50
13928;DHT22;7036;50.834;4.718;2022-08-11T17:04:49;27.40;42.70
13928;DHT22;7036;50.834;4.718;2022-08-11T17:07:31;27.30;42.60
13928;DHT22;7036;50.834;4.718;2022-08-11T17:10:21;27.30;42.10
13928;DHT22;7036;50.834;4.718;2022-08-11T17:13:04;27.30;42.50
13928;DHT22;7036;50.834;4.718;2022-08-11T17:15:37;27.30;42.50
13928;DHT22;7036;50.834;4.718;2022-08-11T17:18:21;27.30;42.50
13928;DHT22;7036;50.834;4.718;2022-08-11T17:21:06;27.30;42.30
13928;DHT22;7036;50.834;4.718;2022-08-11T17:23:34;27.30;42.30
13928;DHT22;7036;50.834;4.718;2022-08-11T17:26:20;27.30;41.80
13928;DHT22;7036;50.834;4.718;2022-08-11T17:28:49;27.30;42.00
13928;DHT22;7036;50.834;4.718;2022-08-11T17:31:19;27.30;41.60
13928;DHT22;7036;50.834;4.718;2022-08-11T17:34:03;27.30;41.40
13928;DHT22;7036;50.834;4.718;2022-08-11T17:36:48;27.30;41.20
13928;DHT22;7036;50.834;4.718;2022-08-11T17:39:14;27.30;41.10
13928;DHT22;7036;50.834;4.718;2022-08-11T17:41:42;27.30;41.50
13928;DHT22;7036;50.834;4.718;2022-08-11T17:44:27;27.30;41.10
13928;DHT22;7036;50.834;4.718;2022-08-11T17:47:12;27.30;41.20
13928;DHT22;7036;50.834;4.718;2022-08-11T17:49:57;27.30;41.40
13928;DHT22;7036;50.834;4.718;2022-08-11T17:52:24;27.30;41.10
13928;DHT22;7036;50.834;4.718;2022-08-11T17:55:10;27.20;41.70
13928;DHT22;7036;50.834;4.718;2022-08-11T17:57:55;27.20;42.20
13928;DHT22;7036;50.834;4.718;2022-08-11T18:00:41;27.20;41.80
13928;DHT22;7036;50.834;4.718;2022-08-11T18:03:09;27.20;42.30
13928;DHT22;7036;50.834;4.718;2022-08-11T18:05:55;27.30;42.00
13928;DHT22;7036;50.834;4.718;2022-08-11T18:08:21;27.20;41.80
13928;DHT22;7036;50.834;4.718;2022-08-11T18:11:06;27.30;42.00
13928;DHT22;7036;50.834;4.718;2022-08-11T18:13:51;27.30;42.50
13928;DHT22;7036;50.834;4.718;2022-08-11T18:16:36;27.30;42.60
13928;DHT22;7036;50.834;4.718;2022-08-11T18:19:22;27.20;42.90
13928;DHT22;7036;50.834;4.718;2022-08-11T18:22:08;27.20;42.80
13928;DHT22;7036;50.834;4.718;2022-08-11T18:24:56;27.20;42.80
13928;DHT22;7036;50.834;4.718;2022-08-11T18:27:41;27.20;42.60
13928;DHT22;7036;50.834;4.718;2022-08-11T18:30:25;27.20;42.80
13928;DHT22;7036;50.834;4.718;2022-08-11T18:33:10;27.20;42.70
13928;DHT22;7036;50.834;4.718;2022-08-11T18:35:57;27.20;42.80
13928;DHT22;7036;50.834;4.718;2022-08-11T18:38:40;27.20;42.90
13928;DHT22;7036;50.834;4.718;2022-08-11T18:41:25;27.20;42.90
13928;DHT22;7036;50.834;4.718;2022-08-11T18:44:10;27.20;42.90
13928;DHT22;7036;50.834;4.718;2022-08-11T18:46:55;27.20;43.00
13928;DHT22;7036;50.834;4.718;2022-08-11T18:49:40;27.20;43.20
13928;DHT22;7036;50.834;4.718;2022-08-11T18:52:25;27.20;42.90
13928;DHT22;7036;50.834;4.718;2022-08-11T18:55:10;27.20;42.90
13928;DHT22;7036;50.834;4.718;2022-08-11T18:57:55;27.20;42.90
13928;DHT22;7036;50.834;4.718;2022-08-11T19:00:40;27.20;43.30
13928;DHT22;7036;50.834;4.718;2022-08-11T19:03:26;27.20;43.90
13928;DHT22;7036;50.834;4.718;2022-08-11T19:06:11;27.10;43.60
13928;DHT22;7036;50.834;4.718;2022-08-11T19:09:01;27.10;43.90
13928;DHT22;7036;50.834;4.718;2022-08-11T19:11:45;27.10;43.80
13928;DHT22;7036;50.834;4.718;2022-08-11T19:14:31;27.10;43.90
13928;DHT22;7036;50.834;4.718;2022-08-11T19:17:16;27.20;44.00
13928;DHT22;7036;50.834;4.718;2022-08-11T19:20:05;27.10;44.10
13928;DHT22;7036;50.834;4.718;2022-08-11T19:22:50;27.10;44.40
13928;DHT22;7036;50.834;4.718;2022-08-11T19:25:35;27.10;44.20
13928;DHT22;7036;50.834;4.718;2022-08-11T19:28:20;27.10;44.30
13928;DHT22;7036;50.834;4.718;2022-08-11T19:31:06;27.10;44.30
13928;DHT22;7036;50.834;4.718;2022-08-11T19:33:50;27.10;44.40
13928;DHT22;7036;50.834;4.718;2022-08-11T19:36:35;27.10;44.40
13928;DHT22;7036;50.834;4.718;2022-08-11T19:39:22;27.10;44.50